createdAt,value
2022-12-27T00:01:52.050Z,0.80
2022-12-27T00:04:18.484Z,0.83
2022-12-27T00:06:44.635Z,0.93
2022-12-27T00:09:11.104Z,0.80
2022-12-27T00:11:38.431Z,1.00
2022-12-27T00:14:06.220Z,1.03
2022-12-27T00:16:33.034Z,0.50
2022-12-27T00:18:59.823Z,0.53
2022-12-27T00:21:26.357Z,1.53
2022-12-27T00:23:55.200Z,0.90
2022-12-27T00:26:23.986Z,1.00
2022-12-27T00:28:50.541Z,0.93
2022-12-27T00:31:18.354Z,0.90
2022-12-27T00:33:46.030Z,0.97
2022-12-27T00:36:15.871Z,1.20
2022-12-27T00:38:42.652Z,0.60
2022-12-27T00:41:09.447Z,1.00
2022-12-27T00:43:36.401Z,1.00
2022-12-27T00:46:03.812Z,1.10
2022-12-27T00:48:30.631Z,1.23
2022-12-27T00:50:59.208Z,1.00
2022-12-27T00:53:27.317Z,1.33
2022-12-27T00:55:54.223Z,1.40
2022-12-27T00:58:21.411Z,1.27
2022-12-27T01:00:48.866Z,1.53
2022-12-27T01:03:16.897Z,1.27
2022-12-27T01:05:43.887Z,1.50
2022-12-27T01:08:10.602Z,1.00
2022-12-27T01:10:39.903Z,1.50
2022-12-27T01:13:07.035Z,1.10
2022-12-27T01:15:33.391Z,1.33
2022-12-27T01:17:59.847Z,1.30
2022-12-27T01:20:26.313Z,1.20
2022-12-27T01:22:54.097Z,1.37
2022-12-27T01:25:20.369Z,1.07
2022-12-27T01:27:47.091Z,1.00
2022-12-27T01:30:13.388Z,1.13
2022-12-27T01:32:39.913Z,1.10
2022-12-27T01:35:06.574Z,1.10
2022-12-27T01:37:33.110Z,1.30
2022-12-27T01:39:59.290Z,1.50
2022-12-27T01:42:45.447Z,2.00
2022-12-27T01:45:17.498Z,1.70
2022-12-27T01:47:49.974Z,1.50
2022-12-27T01:50:39.577Z,1.33
2022-12-27T01:53:12.794Z,1.50
2022-12-27T01:55:47.471Z,1.40
2022-12-27T01:58:45.496Z,1.63
2022-12-27T02:01:16.792Z,2.53
2022-12-27T02:03:47.864Z,1.97
2022-12-27T02:06:15.314Z,0.97
2022-12-27T02:08:57.570Z,1.33
2022-12-27T02:11:46.629Z,1.30
2022-12-27T02:14:15.169Z,1.60
2022-12-27T02:16:41.346Z,1.30
2022-12-27T02:19:33.229Z,1.40
2022-12-27T02:22:17.499Z,1.67
2022-12-27T02:24:53.463Z,1.77
2022-12-27T02:27:50.898Z,1.80
2022-12-27T02:30:17.372Z,1.63
2022-12-27T02:32:53.736Z,2.20
2022-12-27T02:35:43.895Z,2.63
2022-12-27T02:38:29.945Z,1.53
2022-12-27T02:41:18.497Z,1.20
2022-12-27T02:44:03.243Z,1.20
2022-12-27T02:46:49.674Z,1.20
2022-12-27T02:49:45.793Z,1.57
2022-12-27T02:52:50.795Z,2.20
2022-12-27T02:56:08.035Z,1.10
2022-12-27T02:59:12.159Z,1.20
2022-12-27T03:02:23.266Z,1.13
2022-12-27T03:05:15.973Z,1.40
2022-12-27T03:08:07.922Z,1.30
2022-12-27T03:11:03.765Z,0.93
2022-12-27T03:14:04.618Z,1.17
2022-12-27T03:17:01.809Z,1.23
2022-12-27T03:19:57.100Z,1.10
2022-12-27T03:22:45.428Z,1.50
2022-12-27T03:25:28.821Z,0.83
2022-12-27T03:28:30.759Z,1.23
2022-12-27T03:31:23.617Z,1.37
2022-12-27T03:34:03.776Z,1.17
2022-12-27T03:36:51.303Z,1.47
2022-12-27T03:39:32.914Z,1.60
2022-12-27T03:42:28.093Z,1.43
2022-12-27T03:44:55.174Z,1.10
2022-12-27T03:47:21.179Z,1.50
2022-12-27T03:50:05.111Z,1.17
2022-12-27T03:52:37.343Z,1.40
2022-12-27T03:55:04.947Z,1.30
2022-12-27T03:57:31.171Z,1.30
2022-12-27T03:59:57.656Z,1.07
2022-12-27T04:02:23.920Z,1.17
2022-12-27T04:04:51.231Z,1.33
2022-12-27T04:07:17.356Z,1.50
2022-12-27T04:10:02.534Z,2.10
2022-12-27T04:12:47.297Z,1.17
2022-12-27T04:15:32.473Z,1.40
2022-12-27T04:18:17.196Z,1.60
2022-12-27T04:21:02.581Z,1.80
2022-12-27T04:23:47.324Z,1.30
2022-12-27T04:26:32.549Z,1.23
2022-12-27T04:29:17.189Z,1.10
2022-12-27T04:32:02.384Z,1.40
2022-12-27T04:34:43.913Z,1.33
2022-12-27T04:37:19.774Z,1.20
2022-12-27T04:40:10.458Z,1.20
2022-12-27T04:42:55.269Z,1.40
2022-12-27T04:45:40.434Z,1.27
2022-12-27T04:48:32.229Z,1.10
2022-12-27T04:51:17.794Z,0.90
2022-12-27T04:54:03.176Z,1.80
2022-12-27T04:56:29.308Z,1.30
2022-12-27T04:59:15.048Z,1.00
2022-12-27T05:02:00.301Z,1.27
2022-12-27T05:04:26.964Z,1.23
2022-12-27T05:06:53.798Z,1.40
2022-12-27T05:09:38.886Z,1.10
2022-12-27T05:12:24.458Z,0.97
2022-12-27T05:14:50.979Z,1.37
2022-12-27T05:17:17.080Z,0.97
2022-12-27T05:19:43.511Z,1.00
2022-12-27T05:22:28.218Z,1.30
2022-12-27T05:25:13.604Z,1.03
2022-12-27T05:27:39.786Z,0.90
2022-12-27T05:30:06.834Z,1.07
2022-12-27T05:32:33.040Z,1.23
2022-12-27T05:34:59.433Z,1.10
2022-12-27T05:37:26.143Z,1.67
2022-12-27T05:39:52.645Z,1.20
2022-12-27T05:42:18.761Z,1.00
2022-12-27T05:44:45.202Z,0.97
2022-12-27T05:47:11.347Z,1.10
2022-12-27T05:49:37.788Z,1.30
2022-12-27T05:52:04.173Z,1.17
2022-12-27T05:54:30.634Z,1.30
2022-12-27T05:56:56.837Z,1.27
2022-12-27T05:59:23.630Z,1.20
2022-12-27T06:01:51.127Z,1.23
2022-12-27T06:04:17.760Z,1.47
2022-12-27T06:06:44.090Z,1.43
2022-12-27T06:09:11.004Z,1.40
2022-12-27T06:11:37.659Z,1.40
2022-12-27T06:14:04.222Z,1.43
2022-12-27T06:16:30.447Z,1.13
2022-12-27T06:18:57.036Z,1.43
2022-12-27T06:21:23.907Z,1.00
2022-12-27T06:23:50.653Z,0.70
2022-12-27T06:26:21.227Z,0.90
2022-12-27T06:28:49.407Z,1.10
2022-12-27T06:31:17.152Z,1.20
2022-12-27T06:33:43.939Z,1.57
2022-12-27T06:36:12.681Z,1.43
2022-12-27T06:38:39.503Z,1.23
2022-12-27T06:41:09.706Z,1.23
2022-12-27T06:43:36.749Z,1.30
2022-12-27T06:46:07.193Z,1.07
2022-12-27T06:48:33.804Z,1.57
2022-12-27T06:51:04.517Z,1.17
2022-12-27T06:53:31.125Z,1.40
2022-12-27T06:55:57.334Z,1.90
2022-12-27T06:58:24.005Z,1.40
2022-12-27T07:00:50.818Z,1.27
2022-12-27T07:03:17.569Z,1.77
2022-12-27T07:05:43.913Z,1.23
2022-12-27T07:08:10.620Z,1.80
2022-12-27T07:10:37.262Z,1.43
2022-12-27T07:13:04.215Z,1.40
2022-12-27T07:15:30.618Z,1.77
2022-12-27T07:17:57.205Z,1.40
2022-12-27T07:20:23.443Z,1.73
2022-12-27T07:22:50.566Z,1.57
2022-12-27T07:25:16.933Z,1.27
2022-12-27T07:27:43.504Z,1.37
2022-12-27T07:30:10.382Z,1.27
2022-12-27T07:32:37.144Z,1.27
2022-12-27T07:35:03.670Z,1.63
2022-12-27T07:37:30.649Z,1.30
2022-12-27T07:39:56.983Z,1.47
2022-12-27T07:42:23.854Z,1.57
2022-12-27T07:44:50.231Z,1.80
2022-12-27T07:47:16.802Z,1.70
2022-12-27T07:49:43.088Z,1.57
2022-12-27T07:52:09.663Z,1.87
2022-12-27T07:54:35.979Z,1.70
2022-12-27T07:57:02.672Z,1.80
2022-12-27T07:59:29.166Z,1.10
2022-12-27T08:02:05.887Z,1.30
2022-12-27T08:04:35.096Z,1.40
2022-12-27T08:07:05.163Z,1.33
2022-12-27T08:09:35.474Z,5.47
2022-12-27T08:12:02.043Z,1.43
2022-12-27T08:14:28.665Z,1.10
2022-12-27T08:17:01.986Z,1.57
2022-12-27T08:19:28.213Z,1.53
2022-12-27T08:21:54.719Z,1.30
2022-12-27T08:24:20.904Z,1.07
2022-12-27T08:26:47.558Z,1.10
2022-12-27T08:29:13.911Z,1.43
2022-12-27T08:31:40.393Z,1.60
2022-12-27T08:34:06.669Z,1.43
2022-12-27T08:39:19.739Z,1.53
2022-12-27T08:41:46.788Z,1.10
2022-12-27T08:44:13.416Z,1.30
2022-12-27T08:46:40.400Z,1.50
2022-12-27T08:49:06.789Z,1.57
2022-12-27T08:51:40.851Z,1.23
2022-12-27T08:54:08.427Z,1.17
2022-12-27T08:56:35.197Z,1.57
2022-12-27T08:59:02.463Z,1.10
2022-12-27T09:01:29.333Z,1.17
2022-12-27T09:03:55.690Z,1.60
2022-12-27T09:06:23.919Z,1.50
2022-12-27T09:08:51.526Z,2.60
2022-12-27T09:11:21.655Z,1.30
2022-12-27T09:13:48.170Z,1.87
2022-12-27T09:16:18.549Z,1.77
2022-12-27T09:18:48.556Z,0.97
2022-12-27T09:21:16.448Z,15.83
2022-12-27T09:23:42.950Z,1.63
2022-12-27T09:26:15.140Z,1.93
2022-12-27T09:28:42.003Z,1.90
2022-12-27T09:31:10.490Z,1.43
2022-12-27T09:33:37.896Z,1.40
2022-12-27T09:36:07.455Z,1.30
2022-12-27T09:38:35.276Z,1.37
2022-12-27T09:41:06.245Z,1.50
2022-12-27T09:43:44.154Z,1.50
2022-12-27T09:46:17.642Z,1.60
2022-12-27T09:48:46.536Z,1.70
2022-12-27T09:51:45.043Z,1.97
2022-12-27T09:54:19.392Z,1.83
2022-12-27T09:57:18.516Z,2.10
2022-12-27T09:59:41.792Z,1.80
2022-12-27T10:02:21.221Z,1.50
2022-12-27T10:08:06.547Z,1.77
2022-12-27T10:10:42.249Z,1.70
2022-12-27T10:13:24.532Z,1.50
2022-12-27T10:16:00.328Z,1.20
2022-12-27T10:18:52.241Z,1.63
2022-12-27T10:21:23.343Z,1.40
2022-12-27T10:24:02.219Z,1.53
2022-12-27T10:26:32.311Z,1.97
2022-12-27T10:29:04.365Z,2.10
2022-12-27T10:31:31.782Z,1.30
2022-12-27T10:33:59.755Z,1.20
2022-12-27T10:36:29.056Z,1.67
2022-12-27T10:38:56.175Z,1.30
2022-12-27T10:41:25.183Z,1.43
2022-12-27T10:43:53.393Z,1.90
2022-12-27T10:46:25.206Z,1.60
2022-12-27T10:49:20.708Z,1.37
2022-12-27T10:51:50.873Z,1.57
2022-12-27T10:54:27.454Z,1.83
2022-12-27T10:56:55.493Z,1.80
2022-12-27T10:59:24.871Z,1.23
2022-12-27T11:02:01.073Z,1.53
2022-12-27T11:04:29.898Z,1.60
2022-12-27T11:06:59.261Z,1.60
2022-12-27T11:09:27.539Z,1.40
2022-12-27T11:12:15.098Z,1.40
2022-12-27T11:14:59.536Z,1.60
2022-12-27T11:17:36.832Z,1.40
2022-12-27T11:20:31.257Z,1.63
2022-12-27T11:23:03.032Z,1.23
2022-12-27T11:25:30.939Z,1.30
2022-12-27T11:28:04.887Z,1.40
2022-12-27T11:30:35.162Z,1.93
2022-12-27T11:33:24.379Z,1.53
2022-12-27T11:35:55.565Z,1.40
2022-12-27T11:38:28.719Z,1.87
2022-12-27T11:41:02.694Z,1.63
2022-12-27T11:43:38.980Z,1.40
2022-12-27T11:46:32.078Z,1.57
2022-12-27T11:48:58.876Z,1.37
2022-12-27T11:51:47.146Z,1.37
2022-12-27T11:54:29.255Z,1.47
2022-12-27T11:57:24.033Z,1.70
2022-12-27T11:59:58.134Z,1.80
2022-12-27T12:02:44.029Z,1.33
2022-12-27T12:05:42.481Z,1.47
2022-12-27T12:08:22.526Z,1.47
2022-12-27T12:11:04.614Z,1.33
2022-12-27T12:13:54.995Z,1.10
2022-12-27T12:17:09.835Z,1.37
2022-12-27T12:20:05.066Z,1.67
2022-12-27T12:22:39.791Z,1.13
2022-12-27T12:25:30.030Z,2.93
2022-12-27T12:28:55.859Z,1.60
2022-12-27T12:31:41.486Z,1.53
2022-12-27T12:35:00.193Z,1.47
2022-12-27T12:37:38.951Z,2.20
2022-12-27T12:40:34.923Z,1.70
2022-12-27T12:43:10.129Z,1.70
2022-12-27T12:46:12.867Z,1.93
2022-12-27T12:48:51.695Z,2.00
2022-12-27T12:51:47.696Z,2.07
2022-12-27T12:54:58.903Z,1.90
2022-12-27T12:57:25.236Z,2.00
2022-12-27T13:00:32.180Z,2.50
2022-12-27T13:03:20.835Z,1.90
2022-12-27T13:05:52.124Z,2.43
2022-12-27T13:08:54.112Z,2.30
2022-12-27T13:11:34.942Z,1.90
2022-12-27T13:14:23.173Z,1.40
2022-12-27T13:16:49.952Z,1.63
2022-12-27T13:19:43.447Z,1.83
2022-12-27T13:22:32.024Z,2.33
2022-12-27T13:25:10.961Z,2.13
2022-12-27T13:27:50.173Z,2.40
2022-12-27T13:30:23.936Z,2.57
2022-12-27T13:33:13.805Z,2.60
2022-12-27T13:35:55.557Z,2.60
2022-12-27T13:39:19.802Z,2.20
2022-12-27T13:41:59.074Z,2.10
2022-12-27T13:44:43.902Z,2.67
2022-12-27T13:47:35.595Z,3.00
2022-12-27T13:50:20.924Z,2.27
2022-12-27T13:53:00.406Z,2.30
2022-12-27T13:55:36.163Z,2.00
2022-12-27T13:58:25.754Z,2.37
2022-12-27T14:01:14.726Z,2.13
2022-12-27T14:04:04.224Z,2.40
2022-12-27T14:06:52.061Z,2.20
2022-12-27T14:09:30.020Z,2.50
2022-12-27T14:12:35.750Z,2.27
2022-12-27T14:15:13.375Z,2.47
2022-12-27T14:18:20.449Z,1.83
2022-12-27T14:21:02.202Z,2.13
2022-12-27T14:23:48.424Z,2.43
2022-12-27T14:27:08.983Z,2.10
2022-12-27T14:30:23.496Z,1.83
2022-12-27T14:33:39.578Z,2.17
2022-12-27T14:36:34.524Z,2.30
2022-12-27T14:39:25.670Z,2.53
2022-12-27T14:42:26.724Z,3.43
2022-12-27T14:45:30.909Z,2.20
2022-12-27T14:48:00.739Z,2.03
2022-12-27T14:50:55.089Z,2.57
2022-12-27T14:53:43.485Z,2.30
2022-12-27T14:56:13.042Z,2.40
2022-12-27T14:58:49.036Z,2.50
2022-12-27T15:01:21.725Z,3.73
2022-12-27T15:04:01.043Z,2.57
2022-12-27T15:06:56.732Z,2.30
2022-12-27T15:09:56.427Z,2.20
2022-12-27T15:13:01.205Z,2.40
2022-12-27T15:15:54.903Z,2.30
2022-12-27T15:18:31.623Z,2.47
2022-12-27T15:21:01.469Z,2.53
2022-12-27T15:23:54.126Z,2.50
2022-12-27T15:26:59.939Z,2.63
2022-12-27T15:29:38.726Z,2.67
2022-12-27T15:32:05.537Z,2.67
2022-12-27T15:34:50.487Z,3.10
2022-12-27T15:37:51.689Z,2.80
2022-12-27T15:40:33.759Z,3.00
2022-12-27T15:43:33.161Z,3.43
2022-12-27T15:46:37.155Z,3.17
2022-12-27T15:49:17.159Z,3.17
2022-12-27T15:51:43.641Z,3.00
2022-12-27T15:54:13.084Z,3.17
2022-12-27T15:56:57.987Z,3.23
2022-12-27T15:59:34.036Z,3.00
2022-12-27T16:02:29.495Z,3.17
2022-12-27T16:05:00.290Z,2.67
2022-12-27T16:07:40.659Z,2.63
2022-12-27T16:10:26.366Z,3.00
2022-12-27T16:12:55.395Z,3.40
2022-12-27T16:15:38.756Z,3.43
2022-12-27T16:18:17.403Z,3.37
2022-12-27T16:21:01.868Z,2.73
2022-12-27T16:23:33.680Z,3.27
2022-12-27T16:26:06.592Z,2.53
2022-12-27T16:28:35.775Z,3.10
2022-12-27T16:31:08.729Z,2.70
2022-12-27T16:33:40.655Z,2.77
2022-12-27T16:36:19.849Z,3.37
2022-12-27T16:38:46.482Z,3.03
2022-12-27T16:41:41.042Z,2.97
2022-12-27T16:44:25.778Z,2.90
2022-12-27T16:46:55.844Z,2.60
2022-12-27T16:49:59.288Z,2.37
2022-12-27T16:52:47.749Z,2.37
2022-12-27T16:55:36.166Z,2.37
2022-12-27T16:58:26.644Z,2.40
2022-12-27T17:00:55.999Z,2.10
2022-12-27T17:03:34.784Z,2.17
2022-12-27T17:06:33.557Z,2.73
2022-12-27T17:09:10.597Z,2.10
2022-12-27T17:11:49.326Z,2.20
2022-12-27T17:14:21.576Z,2.50
2022-12-27T17:16:51.258Z,2.07
2022-12-27T17:19:29.608Z,2.27
2022-12-27T17:22:01.199Z,2.70
2022-12-27T17:24:29.467Z,2.53
2022-12-27T17:27:01.819Z,2.97
2022-12-27T17:29:43.750Z,3.57
2022-12-27T17:32:25.027Z,3.70
2022-12-27T17:35:04.336Z,3.80
2022-12-27T17:37:43.189Z,4.50
2022-12-27T17:40:19.126Z,4.20
2022-12-27T17:43:13.595Z,4.67
2022-12-27T17:46:12.663Z,4.63
2022-12-27T17:48:39.138Z,4.80
2022-12-27T17:51:11.625Z,3.87
2022-12-27T17:54:05.290Z,4.57
2022-12-27T17:57:01.535Z,4.40
2022-12-27T17:59:29.895Z,3.60
2022-12-27T18:02:13.471Z,3.90
2022-12-27T18:04:48.399Z,3.23
2022-12-27T18:07:24.208Z,3.43
2022-12-27T18:09:54.353Z,3.30
2022-12-27T18:12:28.061Z,3.30
2022-12-27T18:15:03.606Z,2.83
2022-12-27T18:17:52.042Z,2.83
2022-12-27T18:20:27.618Z,2.37
2022-12-27T18:23:00.889Z,2.40
2022-12-27T18:25:51.993Z,2.37
2022-12-27T18:28:28.726Z,2.77
2022-12-27T18:31:19.895Z,2.00
2022-12-27T18:33:58.656Z,1.90
2022-12-27T18:36:35.336Z,2.97
2022-12-27T18:39:07.725Z,2.90
2022-12-27T18:41:40.204Z,3.50
2022-12-27T18:44:20.005Z,3.90
2022-12-27T18:47:01.918Z,3.17
2022-12-27T18:49:37.017Z,3.43
2022-12-27T18:52:20.532Z,3.20
2022-12-27T18:54:48.005Z,3.70
2022-12-27T18:57:38.850Z,3.10
2022-12-27T19:00:14.878Z,3.50
2022-12-27T19:02:42.278Z,3.33
2022-12-27T19:05:18.593Z,3.27
2022-12-27T19:07:53.262Z,2.83
2022-12-27T19:10:23.555Z,3.10
2022-12-27T19:12:51.540Z,3.23
2022-12-27T19:15:38.393Z,3.20
2022-12-27T19:18:16.087Z,2.90
2022-12-27T19:21:00.281Z,3.30
2022-12-27T19:23:31.002Z,3.60
2022-12-27T19:26:20.641Z,3.70
2022-12-27T19:29:06.063Z,3.20
2022-12-27T19:31:35.474Z,3.00
2022-12-27T19:34:07.645Z,2.73
2022-12-27T19:36:39.288Z,3.47
2022-12-27T19:39:22.921Z,3.23
2022-12-27T19:41:53.223Z,3.20
2022-12-27T19:44:28.582Z,3.10
2022-12-27T19:46:55.430Z,2.97
2022-12-27T19:49:41.862Z,3.27
2022-12-27T19:52:21.932Z,3.23
2022-12-27T19:54:54.636Z,2.73
2022-12-27T19:57:21.772Z,3.40
2022-12-27T19:59:48.066Z,3.03
2022-12-27T20:02:15.405Z,2.77
2022-12-27T20:04:42.636Z,3.27
2022-12-27T20:07:19.717Z,3.17
2022-12-27T20:09:46.594Z,2.70
2022-12-27T20:12:13.468Z,3.10
2022-12-27T20:14:40.087Z,4.23
2022-12-27T20:17:06.699Z,6.73
2022-12-27T20:19:33.001Z,18.27
2022-12-27T20:22:00.035Z,15.70
2022-12-27T20:24:26.481Z,9.53
2022-12-27T20:26:53.341Z,5.63
2022-12-27T20:29:20.636Z,6.40
2022-12-27T20:31:49.398Z,5.70
2022-12-27T20:34:18.401Z,5.77
2022-12-27T20:36:45.510Z,4.80
2022-12-27T20:39:15.815Z,5.17
2022-12-27T20:41:43.147Z,5.33
2022-12-27T20:44:15.218Z,4.87
2022-12-27T20:46:42.238Z,5.73
2022-12-27T20:49:08.657Z,5.53
2022-12-27T20:51:35.609Z,5.07
2022-12-27T20:54:04.808Z,4.73
2022-12-27T20:56:31.659Z,4.97
2022-12-27T20:58:58.552Z,4.57
2022-12-27T21:01:27.826Z,5.53
2022-12-27T21:03:56.002Z,4.50
2022-12-27T21:06:29.173Z,6.00
2022-12-27T21:08:58.205Z,4.17
2022-12-27T21:11:29.599Z,4.60
2022-12-27T21:13:56.160Z,4.50
2022-12-27T21:16:25.069Z,4.43
2022-12-27T21:18:51.982Z,4.57
2022-12-27T21:21:21.282Z,4.23
2022-12-27T21:23:49.589Z,4.37
2022-12-27T21:26:22.569Z,4.03
2022-12-27T21:28:48.945Z,4.90
2022-12-27T21:31:17.157Z,4.70
2022-12-27T21:33:44.161Z,5.93
2022-12-27T21:36:17.219Z,6.00
2022-12-27T21:38:44.388Z,7.37
2022-12-27T21:41:21.033Z,7.67
2022-12-27T21:43:48.609Z,7.77
2022-12-27T21:46:22.291Z,8.03
2022-12-27T21:48:56.605Z,7.77
2022-12-27T21:51:25.142Z,7.23
2022-12-27T21:53:53.409Z,8.10
2022-12-27T21:56:20.750Z,7.83
2022-12-27T21:58:47.216Z,9.10
2022-12-27T22:01:15.179Z,8.67
2022-12-27T22:03:43.944Z,8.23
2022-12-27T22:06:17.004Z,8.33
2022-12-27T22:08:45.833Z,8.50
2022-12-27T22:11:13.529Z,10.27
2022-12-27T22:13:40.747Z,9.17
2022-12-27T22:16:12.321Z,9.97
2022-12-27T22:18:43.727Z,9.97
2022-12-27T22:21:13.432Z,9.67
2022-12-27T22:23:44.126Z,8.87
2022-12-27T22:26:16.243Z,9.80
2022-12-27T22:28:43.042Z,8.83
2022-12-27T22:31:12.442Z,9.47
2022-12-27T22:33:39.893Z,9.13
2022-12-27T22:36:11.347Z,8.10
2022-12-27T22:38:38.010Z,8.77
2022-12-27T22:41:04.885Z,8.60
2022-12-27T22:43:31.276Z,10.40
2022-12-27T22:45:58.088Z,9.17
2022-12-27T22:48:24.571Z,9.83
2022-12-27T22:50:51.147Z,10.40
2022-12-27T22:53:17.447Z,9.90
2022-12-27T22:55:45.183Z,10.03
2022-12-27T22:58:11.404Z,11.07
2022-12-27T23:00:38.555Z,10.67
2022-12-27T23:03:04.895Z,9.70
2022-12-27T23:05:32.093Z,9.63
2022-12-27T23:08:05.219Z,10.10
2022-12-27T23:10:34.476Z,10.70
2022-12-27T23:13:00.873Z,10.70
2022-12-27T23:15:27.341Z,10.10
2022-12-27T23:17:53.555Z,9.47
2022-12-27T23:20:20.100Z,9.27
2022-12-27T23:22:46.314Z,9.63
2022-12-27T23:25:12.973Z,9.00
2022-12-27T23:27:39.262Z,7.53
2022-12-27T23:30:06.191Z,7.87
2022-12-27T23:32:32.423Z,7.33
2022-12-27T23:34:59.033Z,6.93
2022-12-27T23:37:25.268Z,6.53
2022-12-27T23:39:51.717Z,6.93
2022-12-27T23:42:18.038Z,6.47
2022-12-27T23:44:44.518Z,6.33
2022-12-27T23:47:10.969Z,6.07
2022-12-27T23:49:37.440Z,6.33
2022-12-27T23:52:03.833Z,6.53
2022-12-27T23:54:30.492Z,5.90
2022-12-27T23:56:57.005Z,5.77
2022-12-27T23:59:23.915Z,6.03
